Nissiros, Greece
Current Conditions -  °F | °C
As of 2:20 PM on Thursday 23 Oct 2014 (Local Time) from LGKO Reporting Station
Broken Clouds Broken Clouds  
Wind Chill: 75°   Ceiling: 8000
Heat Index: 75°   Visibility: 6mi
Dew Point: 61°   Wind: 24mph
Humidity: 61%   Direction: 180°S
Pressure: 29.74"   Gusts: 36mph
Location:  36.58°N, 27.17°E
Report Text: LGKO 231120Z 18021G31KT 9999 FEW018TCU SCT020 BKN080 24/16 Q1007
Loading
Personal Weather Stations






























Interactive Weather Map
Tropical Storm Tracking
New forecast layout! Learn more

10-Day Weather Forecast

Advertisements
Track Severe Weather on mobile